sensor_id;sensor_type;location;lat;lon;timestamp;P1;durP1;ratioP1;P2;durP2;ratioP2
74371;SDS011;62885;51.374;6.170;2023-04-06T00:01:07;10.90;;;5.20;;
74371;SDS011;62885;51.374;6.170;2023-04-06T00:03:33;10.40;;;4.80;;
74371;SDS011;62885;51.374;6.170;2023-04-06T00:06:00;11.40;;;5.43;;
74371;SDS011;62885;51.374;6.170;2023-04-06T00:08:26;11.03;;;4.97;;
74371;SDS011;62885;51.374;6.170;2023-04-06T00:10:52;9.88;;;5.03;;
74371;SDS011;62885;51.374;6.170;2023-04-06T00:13:17;13.35;;;5.70;;
74371;SDS011;62885;51.374;6.170;2023-04-06T00:15:43;11.52;;;6.03;;
74371;SDS011;62885;51.374;6.170;2023-04-06T00:18:08;12.80;;;5.35;;
74371;SDS011;62885;51.374;6.170;2023-04-06T00:20:33;10.00;;;5.50;;
74371;SDS011;62885;51.374;6.170;2023-04-06T00:23:00;9.38;;;5.80;;
74371;SDS011;62885;51.374;6.170;2023-04-06T00:25:25;11.90;;;6.00;;
74371;SDS011;62885;51.374;6.170;2023-04-06T00:27:51;10.15;;;5.03;;
74371;SDS011;62885;51.374;6.170;2023-04-06T00:30:16;11.90;;;5.38;;
74371;SDS011;62885;51.374;6.170;2023-04-06T00:32:41;10.93;;;4.93;;
74371;SDS011;62885;51.374;6.170;2023-04-06T00:35:07;10.70;;;6.00;;
74371;SDS011;62885;51.374;6.170;2023-04-06T00:37:32;11.80;;;6.00;;
74371;SDS011;62885;51.374;6.170;2023-04-06T00:39:58;13.52;;;5.85;;
74371;SDS011;62885;51.374;6.170;2023-04-06T00:42:23;12.27;;;5.75;;
74371;SDS011;62885;51.374;6.170;2023-04-06T00:44:53;9.95;;;5.72;;
74371;SDS011;62885;51.374;6.170;2023-04-06T00:47:19;14.50;;;6.45;;
74371;SDS011;62885;51.374;6.170;2023-04-06T00:49:44;15.13;;;6.75;;
74371;SDS011;62885;51.374;6.170;2023-04-06T00:52:10;11.75;;;6.25;;
74371;SDS011;62885;51.374;6.170;2023-04-06T00:54:35;16.83;;;6.43;;
74371;SDS011;62885;51.374;6.170;2023-04-06T00:57:01;13.95;;;7.18;;
74371;SDS011;62885;51.374;6.170;2023-04-06T00:59:28;11.80;;;5.90;;
74371;SDS011;62885;51.374;6.170;2023-04-06T01:01:54;11.88;;;6.85;;
74371;SDS011;62885;51.374;6.170;2023-04-06T01:04:20;12.43;;;7.00;;
74371;SDS011;62885;51.374;6.170;2023-04-06T01:06:47;11.73;;;6.80;;
74371;SDS011;62885;51.374;6.170;2023-04-06T01:09:14;12.93;;;6.75;;
74371;SDS011;62885;51.374;6.170;2023-04-06T01:11:39;14.77;;;7.05;;
74371;SDS011;62885;51.374;6.170;2023-04-06T01:14:05;12.73;;;6.57;;
74371;SDS011;62885;51.374;6.170;2023-04-06T01:16:30;13.70;;;6.95;;
74371;SDS011;62885;51.374;6.170;2023-04-06T01:18:56;13.10;;;7.00;;
74371;SDS011;62885;51.374;6.170;2023-04-06T01:21:21;11.10;;;5.75;;
74371;SDS011;62885;51.374;6.170;2023-04-06T01:23:46;11.88;;;5.65;;
74371;SDS011;62885;51.374;6.170;2023-04-06T01:26:12;10.70;;;6.00;;
74371;SDS011;62885;51.374;6.170;2023-04-06T01:28:38;16.13;;;6.53;;
74371;SDS011;62885;51.374;6.170;2023-04-06T01:31:06;12.65;;;6.35;;
74371;SDS011;62885;51.374;6.170;2023-04-06T01:33:32;14.10;;;6.85;;
74371;SDS011;62885;51.374;6.170;2023-04-06T01:35:57;13.43;;;7.38;;
74371;SDS011;62885;51.374;6.170;2023-04-06T01:38:23;13.77;;;6.70;;
74371;SDS011;62885;51.374;6.170;2023-04-06T01:40:48;12.27;;;7.25;;
74371;SDS011;62885;51.374;6.170;2023-04-06T01:43:13;14.60;;;7.70;;
74371;SDS011;62885;51.374;6.170;2023-04-06T01:45:39;13.20;;;7.32;;
74371;SDS011;62885;51.374;6.170;2023-04-06T01:48:07;17.73;;;6.75;;
74371;SDS011;62885;51.374;6.170;2023-04-06T01:50:32;15.48;;;7.00;;
74371;SDS011;62885;51.374;6.170;2023-04-06T01:52:58;13.75;;;7.40;;
74371;SDS011;62885;51.374;6.170;2023-04-06T01:55:23;14.10;;;7.63;;
74371;SDS011;62885;51.374;6.170;2023-04-06T01:57:48;13.30;;;6.63;;
74371;SDS011;62885;51.374;6.170;2023-04-06T02:00:14;13.25;;;7.25;;
74371;SDS011;62885;51.374;6.170;2023-04-06T02:02:40;13.02;;;7.07;;
74371;SDS011;62885;51.374;6.170;2023-04-06T02:05:06;14.73;;;7.28;;
74371;SDS011;62885;51.374;6.170;2023-04-06T02:07:32;11.02;;;5.82;;
74371;SDS011;62885;51.374;6.170;2023-04-06T02:09:57;11.88;;;6.15;;
74371;SDS011;62885;51.374;6.170;2023-04-06T02:12:22;10.82;;;6.72;;
74371;SDS011;62885;51.374;6.170;2023-04-06T02:14:48;13.95;;;7.47;;
74371;SDS011;62885;51.374;6.170;2023-04-06T02:17:14;14.13;;;6.90;;
74371;SDS011;62885;51.374;6.170;2023-04-06T02:19:39;14.68;;;6.07;;
74371;SDS011;62885;51.374;6.170;2023-04-06T02:22:05;11.95;;;6.45;;
74371;SDS011;62885;51.374;6.170;2023-04-06T02:24:31;11.98;;;7.35;;
74371;SDS011;62885;51.374;6.170;2023-04-06T02:26:56;12.75;;;6.75;;
74371;SDS011;62885;51.374;6.170;2023-04-06T02:29:21;12.10;;;7.68;;
74371;SDS011;62885;51.374;6.170;2023-04-06T02:31:47;12.65;;;7.15;;
74371;SDS011;62885;51.374;6.170;2023-04-06T02:34:12;13.10;;;6.90;;
74371;SDS011;62885;51.374;6.170;2023-04-06T02:36:42;12.70;;;7.28;;
74371;SDS011;62885;51.374;6.170;2023-04-06T02:39:11;13.57;;;7.00;;
74371;SDS011;62885;51.374;6.170;2023-04-06T02:41:37;11.85;;;7.30;;
74371;SDS011;62885;51.374;6.170;2023-04-06T02:44:03;14.82;;;7.30;;
74371;SDS011;62885;51.374;6.170;2023-04-06T02:46:29;13.45;;;7.80;;
74371;SDS011;62885;51.374;6.170;2023-04-06T02:48:57;13.18;;;6.38;;
74371;SDS011;62885;51.374;6.170;2023-04-06T02:51:25;12.23;;;7.03;;
74371;SDS011;62885;51.374;6.170;2023-04-06T02:53:50;16.55;;;7.60;;
74371;SDS011;62885;51.374;6.170;2023-04-06T02:56:16;12.65;;;7.50;;
74371;SDS011;62885;51.374;6.170;2023-04-06T02:58:41;13.07;;;6.82;;
74371;SDS011;62885;51.374;6.170;2023-04-06T03:01:06;15.25;;;7.78;;
74371;SDS011;62885;51.374;6.170;2023-04-06T03:03:32;16.48;;;8.20;;
74371;SDS011;62885;51.374;6.170;2023-04-06T03:05:57;13.40;;;7.35;;
74371;SDS011;62885;51.374;6.170;2023-04-06T03:08:24;13.93;;;6.75;;
74371;SDS011;62885;51.374;6.170;2023-04-06T03:10:50;12.45;;;7.18;;
74371;SDS011;62885;51.374;6.170;2023-04-06T03:13:15;14.50;;;7.25;;
74371;SDS011;62885;51.374;6.170;2023-04-06T03:15:41;10.98;;;7.03;;
74371;SDS011;62885;51.374;6.170;2023-04-06T03:18:06;13.68;;;7.25;;
74371;SDS011;62885;51.374;6.170;2023-04-06T03:20:31;15.35;;;6.82;;
74371;SDS011;62885;51.374;6.170;2023-04-06T03:22:57;17.13;;;7.47;;
74371;SDS011;62885;51.374;6.170;2023-04-06T03:25:23;14.20;;;7.80;;
74371;SDS011;62885;51.374;6.170;2023-04-06T03:27:48;11.95;;;6.70;;
74371;SDS011;62885;51.374;6.170;2023-04-06T03:30:13;11.90;;;6.85;;
74371;SDS011;62885;51.374;6.170;2023-04-06T03:32:42;15.50;;;9.05;;
74371;SDS011;62885;51.374;6.170;2023-04-06T03:35:08;15.07;;;7.10;;
74371;SDS011;62885;51.374;6.170;2023-04-06T03:37:34;14.23;;;7.25;;
74371;SDS011;62885;51.374;6.170;2023-04-06T03:39:59;14.40;;;7.65;;
74371;SDS011;62885;51.374;6.170;2023-04-06T03:42:24;15.35;;;8.63;;
74371;SDS011;62885;51.374;6.170;2023-04-06T03:44:50;17.00;;;7.75;;
74371;SDS011;62885;51.374;6.170;2023-04-06T03:47:15;15.52;;;7.15;;
74371;SDS011;62885;51.374;6.170;2023-04-06T03:49:40;15.50;;;8.05;;
74371;SDS011;62885;51.374;6.170;2023-04-06T03:52:06;13.07;;;7.75;;
74371;SDS011;62885;51.374;6.170;2023-04-06T03:54:31;16.10;;;7.50;;
74371;SDS011;62885;51.374;6.170;2023-04-06T03:56:56;12.88;;;6.88;;
74371;SDS011;62885;51.374;6.170;2023-04-06T03:59:21;16.75;;;7.75;;
74371;SDS011;62885;51.374;6.170;2023-04-06T04:01:47;18.00;;;8.25;;
74371;SDS011;62885;51.374;6.170;2023-04-06T04:04:12;15.38;;;8.77;;
74371;SDS011;62885;51.374;6.170;2023-04-06T04:06:38;14.63;;;7.57;;
74371;SDS011;62885;51.374;6.170;2023-04-06T04:09:03;15.65;;;9.15;;
74371;SDS011;62885;51.374;6.170;2023-04-06T04:11:29;14.63;;;8.85;;
74371;SDS011;62885;51.374;6.170;2023-04-06T04:13:54;18.05;;;8.10;;
74371;SDS011;62885;51.374;6.170;2023-04-06T04:16:19;15.40;;;7.63;;
74371;SDS011;62885;51.374;6.170;2023-04-06T04:18:45;17.38;;;7.85;;
74371;SDS011;62885;51.374;6.170;2023-04-06T04:21:12;15.52;;;8.35;;
74371;SDS011;62885;51.374;6.170;2023-04-06T04:23:37;12.60;;;6.43;;
74371;SDS011;62885;51.374;6.170;2023-04-06T04:26:02;16.43;;;8.50;;
74371;SDS011;62885;51.374;6.170;2023-04-06T04:28:28;15.13;;;8.23;;
74371;SDS011;62885;51.374;6.170;2023-04-06T04:30:53;20.67;;;8.60;;
74371;SDS011;62885;51.374;6.170;2023-04-06T04:33:19;14.15;;;7.82;;
74371;SDS011;62885;51.374;6.170;2023-04-06T04:35:44;14.75;;;7.88;;
74371;SDS011;62885;51.374;6.170;2023-04-06T04:38:09;16.13;;;8.10;;
74371;SDS011;62885;51.374;6.170;2023-04-06T04:40:35;15.43;;;8.35;;
74371;SDS011;62885;51.374;6.170;2023-04-06T04:43:00;20.05;;;8.02;;
74371;SDS011;62885;51.374;6.170;2023-04-06T04:45:25;18.70;;;8.20;;
74371;SDS011;62885;51.374;6.170;2023-04-06T04:47:51;16.48;;;7.65;;
74371;SDS011;62885;51.374;6.170;2023-04-06T04:50:16;13.65;;;7.90;;
74371;SDS011;62885;51.374;6.170;2023-04-06T04:52:42;17.35;;;8.82;;
74371;SDS011;62885;51.374;6.170;2023-04-06T04:55:07;16.43;;;7.80;;
74371;SDS011;62885;51.374;6.170;2023-04-06T04:57:32;17.40;;;9.10;;
74371;SDS011;62885;51.374;6.170;2023-04-06T04:59:58;15.27;;;7.97;;
74371;SDS011;62885;51.374;6.170;2023-04-06T05:02:23;17.75;;;8.35;;
74371;SDS011;62885;51.374;6.170;2023-04-06T05:04:48;14.93;;;7.93;;
74371;SDS011;62885;51.374;6.170;2023-04-06T05:07:14;13.10;;;7.00;;
74371;SDS011;62885;51.374;6.170;2023-04-06T05:09:40;16.15;;;7.90;;
74371;SDS011;62885;51.374;6.170;2023-04-06T05:12:05;16.35;;;7.50;;
74371;SDS011;62885;51.374;6.170;2023-04-06T05:14:31;17.48;;;8.23;;
74371;SDS011;62885;51.374;6.170;2023-04-06T05:16:56;16.45;;;8.30;;
74371;SDS011;62885;51.374;6.170;2023-04-06T05:19:22;12.80;;;7.80;;
74371;SDS011;62885;51.374;6.170;2023-04-06T05:21:47;23.52;;;8.95;;
74371;SDS011;62885;51.374;6.170;2023-04-06T05:24:12;15.40;;;7.43;;
74371;SDS011;62885;51.374;6.170;2023-04-06T05:26:38;14.00;;;7.82;;
74371;SDS011;62885;51.374;6.170;2023-04-06T05:29:04;15.63;;;8.68;;
74371;SDS011;62885;51.374;6.170;2023-04-06T05:31:29;22.15;;;7.25;;
74371;SDS011;62885;51.374;6.170;2023-04-06T05:33:55;16.33;;;8.13;;
74371;SDS011;62885;51.374;6.170;2023-04-06T05:36:21;15.23;;;7.93;;
74371;SDS011;62885;51.374;6.170;2023-04-06T05:38:46;14.80;;;7.55;;
74371;SDS011;62885;51.374;6.170;2023-04-06T05:41:12;15.63;;;7.63;;
74371;SDS011;62885;51.374;6.170;2023-04-06T05:43:37;17.77;;;7.40;;
74371;SDS011;62885;51.374;6.170;2023-04-06T05:46:02;17.55;;;7.40;;
74371;SDS011;62885;51.374;6.170;2023-04-06T05:48:28;18.05;;;8.18;;
74371;SDS011;62885;51.374;6.170;2023-04-06T05:50:54;13.98;;;7.47;;
74371;SDS011;62885;51.374;6.170;2023-04-06T05:53:19;14.48;;;8.30;;
74371;SDS011;62885;51.374;6.170;2023-04-06T05:55:46;16.25;;;8.30;;
74371;SDS011;62885;51.374;6.170;2023-04-06T05:58:11;19.52;;;7.40;;
74371;SDS011;62885;51.374;6.170;2023-04-06T06:00:36;17.13;;;7.93;;
74371;SDS011;62885;51.374;6.170;2023-04-06T06:03:02;14.50;;;7.30;;
74371;SDS011;62885;51.374;6.170;2023-04-06T06:05:29;13.82;;;7.60;;
74371;SDS011;62885;51.374;6.170;2023-04-06T06:07:55;14.23;;;7.65;;
74371;SDS011;62885;51.374;6.170;2023-04-06T06:10:20;19.13;;;7.38;;
74371;SDS011;62885;51.374;6.170;2023-04-06T06:12:46;14.98;;;7.05;;
74371;SDS011;62885;51.374;6.170;2023-04-06T06:15:11;18.15;;;7.78;;
74371;SDS011;62885;51.374;6.170;2023-04-06T06:17:36;16.10;;;7.47;;
74371;SDS011;62885;51.374;6.170;2023-04-06T06:20:03;13.90;;;7.93;;
74371;SDS011;62885;51.374;6.170;2023-04-06T06:22:31;18.42;;;8.02;;
74371;SDS011;62885;51.374;6.170;2023-04-06T06:24:56;15.82;;;8.02;;
74371;SDS011;62885;51.374;6.170;2023-04-06T06:27:21;20.45;;;7.80;;
74371;SDS011;62885;51.374;6.170;2023-04-06T06:29:47;21.73;;;9.02;;
74371;SDS011;62885;51.374;6.170;2023-04-06T06:32:12;14.05;;;7.78;;
74371;SDS011;62885;51.374;6.170;2023-04-06T06:34:37;17.52;;;7.93;;
74371;SDS011;62885;51.374;6.170;2023-04-06T06:37:03;21.20;;;9.18;;
74371;SDS011;62885;51.374;6.170;2023-04-06T06:39:28;22.60;;;11.25;;
74371;SDS011;62885;51.374;6.170;2023-04-06T06:41:53;18.27;;;8.82;;
74371;SDS011;62885;51.374;6.170;2023-04-06T06:44:21;18.67;;;8.10;;
74371;SDS011;62885;51.374;6.170;2023-04-06T06:46:47;18.17;;;8.43;;
74371;SDS011;62885;51.374;6.170;2023-04-06T06:49:13;18.40;;;8.52;;
74371;SDS011;62885;51.374;6.170;2023-04-06T06:51:39;13.32;;;8.25;;
74371;SDS011;62885;51.374;6.170;2023-04-06T06:54:04;16.17;;;8.55;;
74371;SDS011;62885;51.374;6.170;2023-04-06T06:56:30;17.80;;;7.50;;
74371;SDS011;62885;51.374;6.170;2023-04-06T06:58:55;17.83;;;7.65;;
74371;SDS011;62885;51.374;6.170;2023-04-06T07:01:21;16.35;;;7.88;;
74371;SDS011;62885;51.374;6.170;2023-04-06T07:03:46;14.23;;;6.68;;
74371;SDS011;62885;51.374;6.170;2023-04-06T07:06:11;12.80;;;6.75;;
74371;SDS011;62885;51.374;6.170;2023-04-06T07:08:37;16.25;;;7.68;;
74371;SDS011;62885;51.374;6.170;2023-04-06T07:11:02;20.17;;;8.32;;
74371;SDS011;62885;51.374;6.170;2023-04-06T07:13:27;22.98;;;8.10;;
74371;SDS011;62885;51.374;6.170;2023-04-06T07:15:53;18.77;;;7.35;;
74371;SDS011;62885;51.374;6.170;2023-04-06T07:18:18;18.52;;;7.97;;
74371;SDS011;62885;51.374;6.170;2023-04-06T07:20:44;16.15;;;8.13;;
74371;SDS011;62885;51.374;6.170;2023-04-06T07:23:10;15.32;;;7.30;;
74371;SDS011;62885;51.374;6.170;2023-04-06T07:25:35;15.65;;;7.72;;
74371;SDS011;62885;51.374;6.170;2023-04-06T07:28:02;18.98;;;8.65;;
74371;SDS011;62885;51.374;6.170;2023-04-06T07:30:28;15.00;;;8.13;;
74371;SDS011;62885;51.374;6.170;2023-04-06T07:32:53;18.35;;;7.65;;
74371;SDS011;62885;51.374;6.170;2023-04-06T07:35:20;16.83;;;7.88;;
74371;SDS011;62885;51.374;6.170;2023-04-06T07:37:46;17.50;;;8.13;;
74371;SDS011;62885;51.374;6.170;2023-04-06T07:40:11;17.38;;;8.30;;
74371;SDS011;62885;51.374;6.170;2023-04-06T07:42:37;16.05;;;7.15;;
74371;SDS011;62885;51.374;6.170;2023-04-06T07:45:02;17.90;;;7.82;;
74371;SDS011;62885;51.374;6.170;2023-04-06T07:47:28;17.77;;;8.05;;
74371;SDS011;62885;51.374;6.170;2023-04-06T07:49:54;13.88;;;7.88;;
74371;SDS011;62885;51.374;6.170;2023-04-06T07:52:22;16.88;;;7.72;;
74371;SDS011;62885;51.374;6.170;2023-04-06T07:54:47;14.98;;;7.15;;
74371;SDS011;62885;51.374;6.170;2023-04-06T07:57:14;14.95;;;7.55;;
74371;SDS011;62885;51.374;6.170;2023-04-06T07:59:39;14.60;;;8.52;;
74371;SDS011;62885;51.374;6.170;2023-04-06T08:02:05;19.40;;;8.80;;
74371;SDS011;62885;51.374;6.170;2023-04-06T08:04:30;18.67;;;8.60;;
74371;SDS011;62885;51.374;6.170;2023-04-06T08:06:56;17.60;;;9.63;;
74371;SDS011;62885;51.374;6.170;2023-04-06T08:09:21;20.52;;;10.18;;
74371;SDS011;62885;51.374;6.170;2023-04-06T08:11:46;13.85;;;7.35;;
74371;SDS011;62885;51.374;6.170;2023-04-06T08:14:13;13.77;;;7.05;;
74371;SDS011;62885;51.374;6.170;2023-04-06T08:16:40;14.60;;;7.85;;
74371;SDS011;62885;51.374;6.170;2023-04-06T08:19:05;16.63;;;7.63;;
74371;SDS011;62885;51.374;6.170;2023-04-06T08:21:34;16.63;;;7.57;;
74371;SDS011;62885;51.374;6.170;2023-04-06T08:24:02;13.32;;;7.10;;
74371;SDS011;62885;51.374;6.170;2023-04-06T08:26:28;16.33;;;7.65;;
74371;SDS011;62885;51.374;6.170;2023-04-06T08:28:56;13.85;;;7.65;;
74371;SDS011;62885;51.374;6.170;2023-04-06T08:31:21;15.10;;;7.15;;
74371;SDS011;62885;51.374;6.170;2023-04-06T08:33:47;12.65;;;7.38;;
74371;SDS011;62885;51.374;6.170;2023-04-06T08:36:13;14.73;;;7.82;;
74371;SDS011;62885;51.374;6.170;2023-04-06T08:38:40;16.42;;;8.30;;
74371;SDS011;62885;51.374;6.170;2023-04-06T08:41:07;16.70;;;7.22;;
74371;SDS011;62885;51.374;6.170;2023-04-06T08:43:34;13.90;;;7.40;;
74371;SDS011;62885;51.374;6.170;2023-04-06T08:46:08;14.05;;;7.45;;
74371;SDS011;62885;51.374;6.170;2023-04-06T08:48:33;16.58;;;7.35;;
74371;SDS011;62885;51.374;6.170;2023-04-06T08:51:00;22.63;;;7.75;;
74371;SDS011;62885;51.374;6.170;2023-04-06T08:53:27;14.05;;;7.05;;
74371;SDS011;62885;51.374;6.170;2023-04-06T08:55:53;17.55;;;8.45;;
74371;SDS011;62885;51.374;6.170;2023-04-06T08:58:19;14.77;;;7.60;;
74371;SDS011;62885;51.374;6.170;2023-04-06T09:00:46;14.10;;;7.75;;
74371;SDS011;62885;51.374;6.170;2023-04-06T09:03:12;14.25;;;7.82;;
74371;SDS011;62885;51.374;6.170;2023-04-06T09:05:40;18.40;;;7.28;;
74371;SDS011;62885;51.374;6.170;2023-04-06T09:08:06;15.40;;;8.82;;
74371;SDS011;62885;51.374;6.170;2023-04-06T09:10:32;15.63;;;7.88;;
74371;SDS011;62885;51.374;6.170;2023-04-06T09:13:06;30.63;;;7.68;;
74371;SDS011;62885;51.374;6.170;2023-04-06T09:15:33;14.38;;;7.40;;
74371;SDS011;62885;51.374;6.170;2023-04-06T09:17:59;16.17;;;7.75;;
74371;SDS011;62885;51.374;6.170;2023-04-06T09:20:25;51.22;;;11.23;;
74371;SDS011;62885;51.374;6.170;2023-04-06T09:22:52;16.00;;;7.38;;
74371;SDS011;62885;51.374;6.170;2023-04-06T09:25:18;13.00;;;7.78;;
74371;SDS011;62885;51.374;6.170;2023-04-06T09:27:45;14.95;;;7.75;;
74371;SDS011;62885;51.374;6.170;2023-04-06T09:30:11;14.57;;;7.20;;
74371;SDS011;62885;51.374;6.170;2023-04-06T09:32:45;16.85;;;7.20;;
74371;SDS011;62885;51.374;6.170;2023-04-06T09:35:12;12.10;;;6.88;;
74371;SDS011;62885;51.374;6.170;2023-04-06T09:37:38;17.08;;;7.43;;
74371;SDS011;62885;51.374;6.170;2023-04-06T09:40:04;14.40;;;7.82;;
74371;SDS011;62885;51.374;6.170;2023-04-06T09:42:32;15.85;;;8.00;;
74371;SDS011;62885;51.374;6.170;2023-04-06T09:44:57;16.92;;;7.32;;
74371;SDS011;62885;51.374;6.170;2023-04-06T09:47:22;15.25;;;7.00;;
74371;SDS011;62885;51.374;6.170;2023-04-06T09:49:50;15.13;;;7.88;;
74371;SDS011;62885;51.374;6.170;2023-04-06T09:52:20;18.17;;;7.85;;
74371;SDS011;62885;51.374;6.170;2023-04-06T09:54:50;21.92;;;8.15;;
74371;SDS011;62885;51.374;6.170;2023-04-06T09:59:48;17.90;;;7.93;;
74371;SDS011;62885;51.374;6.170;2023-04-06T10:02:26;14.38;;;7.13;;
74371;SDS011;62885;51.374;6.170;2023-04-06T10:05:02;15.77;;;8.18;;
74371;SDS011;62885;51.374;6.170;2023-04-06T10:07:33;16.02;;;7.88;;
74371;SDS011;62885;51.374;6.170;2023-04-06T10:10:01;17.13;;;7.97;;
74371;SDS011;62885;51.374;6.170;2023-04-06T10:12:28;19.45;;;8.23;;
74371;SDS011;62885;51.374;6.170;2023-04-06T10:14:53;14.00;;;7.10;;
74371;SDS011;62885;51.374;6.170;2023-04-06T10:17:19;19.52;;;8.38;;
74371;SDS011;62885;51.374;6.170;2023-04-06T10:20:04;15.95;;;7.90;;
74371;SDS011;62885;51.374;6.170;2023-04-06T10:22:36;16.25;;;8.05;;
74371;SDS011;62885;51.374;6.170;2023-04-06T10:25:03;16.60;;;8.02;;
74371;SDS011;62885;51.374;6.170;2023-04-06T10:27:29;15.00;;;7.57;;
74371;SDS011;62885;51.374;6.170;2023-04-06T10:30:00;15.88;;;7.75;;
74371;SDS011;62885;51.374;6.170;2023-04-06T10:32:31;15.02;;;7.45;;
74371;SDS011;62885;51.374;6.170;2023-04-06T10:40:29;15.68;;;7.22;;
74371;SDS011;62885;51.374;6.170;2023-04-06T10:43:06;14.30;;;6.53;;
74371;SDS011;62885;51.374;6.170;2023-04-06T10:45:33;13.10;;;6.60;;
74371;SDS011;62885;51.374;6.170;2023-04-06T10:47:59;14.20;;;5.82;;
74371;SDS011;62885;51.374;6.170;2023-04-06T10:50:25;16.92;;;6.88;;
74371;SDS011;62885;51.374;6.170;2023-04-06T10:53:00;13.18;;;5.53;;
74371;SDS011;62885;51.374;6.170;2023-04-06T10:55:30;13.38;;;6.30;;
74371;SDS011;62885;51.374;6.170;2023-04-06T10:57:56;13.25;;;6.47;;
74371;SDS011;62885;51.374;6.170;2023-04-06T11:00:21;12.68;;;6.28;;
74371;SDS011;62885;51.374;6.170;2023-04-06T11:02:47;12.63;;;6.88;;
74371;SDS011;62885;51.374;6.170;2023-04-06T11:05:14;13.30;;;6.22;;
74371;SDS011;62885;51.374;6.170;2023-04-06T11:07:39;12.27;;;6.85;;
74371;SDS011;62885;51.374;6.170;2023-04-06T11:10:06;14.65;;;6.70;;
74371;SDS011;62885;51.374;6.170;2023-04-06T11:12:32;12.93;;;6.68;;
74371;SDS011;62885;51.374;6.170;2023-04-06T11:14:58;12.73;;;6.55;;
74371;SDS011;62885;51.374;6.170;2023-04-06T11:17:34;20.15;;;10.57;;
74371;SDS011;62885;51.374;6.170;2023-04-06T11:20:02;13.18;;;6.40;;
74371;SDS011;62885;51.374;6.170;2023-04-06T11:22:29;12.77;;;6.68;;
74371;SDS011;62885;51.374;6.170;2023-04-06T11:25:08;15.65;;;7.35;;
74371;SDS011;62885;51.374;6.170;2023-04-06T11:27:34;11.48;;;6.05;;
74371;SDS011;62885;51.374;6.170;2023-04-06T11:30:00;12.02;;;6.47;;
74371;SDS011;62885;51.374;6.170;2023-04-06T11:32:26;16.30;;;7.72;;
74371;SDS011;62885;51.374;6.170;2023-04-06T11:34:51;13.75;;;7.30;;
74371;SDS011;62885;51.374;6.170;2023-04-06T11:37:17;14.50;;;8.15;;
74371;SDS011;62885;51.374;6.170;2023-04-06T11:39:52;13.40;;;6.75;;
74371;SDS011;62885;51.374;6.170;2023-04-06T11:42:26;16.52;;;5.95;;
74371;SDS011;62885;51.374;6.170;2023-04-06T11:44:54;10.63;;;5.28;;
74371;SDS011;62885;51.374;6.170;2023-04-06T11:47:33;11.73;;;5.72;;
74371;SDS011;62885;51.374;6.170;2023-04-06T11:50:06;14.13;;;6.50;;
74371;SDS011;62885;51.374;6.170;2023-04-06T11:52:36;11.57;;;5.22;;
74371;SDS011;62885;51.374;6.170;2023-04-06T11:55:13;12.07;;;5.43;;
74371;SDS011;62885;51.374;6.170;2023-04-06T11:57:43;9.98;;;5.00;;
74371;SDS011;62885;51.374;6.170;2023-04-06T12:00:09;9.68;;;5.00;;
74371;SDS011;62885;51.374;6.170;2023-04-06T12:02:35;9.32;;;4.90;;
74371;SDS011;62885;51.374;6.170;2023-04-06T12:05:02;8.60;;;4.55;;
74371;SDS011;62885;51.374;6.170;2023-04-06T12:07:29;11.45;;;5.07;;
74371;SDS011;62885;51.374;6.170;2023-04-06T12:09:55;8.82;;;4.93;;
74371;SDS011;62885;51.374;6.170;2023-04-06T12:12:20;11.32;;;5.68;;
74371;SDS011;62885;51.374;6.170;2023-04-06T12:14:46;8.93;;;4.43;;
74371;SDS011;62885;51.374;6.170;2023-04-06T12:17:11;10.32;;;5.15;;
74371;SDS011;62885;51.374;6.170;2023-04-06T12:19:36;11.05;;;5.25;;
74371;SDS011;62885;51.374;6.170;2023-04-06T12:22:01;9.38;;;4.63;;
74371;SDS011;62885;51.374;6.170;2023-04-06T12:24:27;10.25;;;4.40;;
74371;SDS011;62885;51.374;6.170;2023-04-06T12:26:53;8.73;;;4.28;;
74371;SDS011;62885;51.374;6.170;2023-04-06T12:29:19;8.60;;;4.50;;
74371;SDS011;62885;51.374;6.170;2023-04-06T12:31:44;9.43;;;4.68;;
74371;SDS011;62885;51.374;6.170;2023-04-06T12:34:10;8.43;;;4.28;;
74371;SDS011;62885;51.374;6.170;2023-04-06T12:36:36;9.13;;;4.32;;
74371;SDS011;62885;51.374;6.170;2023-04-06T12:39:03;9.07;;;4.25;;
74371;SDS011;62885;51.374;6.170;2023-04-06T12:41:29;11.32;;;4.20;;
74371;SDS011;62885;51.374;6.170;2023-04-06T12:43:54;9.52;;;4.53;;
74371;SDS011;62885;51.374;6.170;2023-04-06T12:46:20;8.88;;;4.07;;
74371;SDS011;62885;51.374;6.170;2023-04-06T12:48:46;9.52;;;4.40;;
74371;SDS011;62885;51.374;6.170;2023-04-06T12:51:11;10.20;;;4.45;;
74371;SDS011;62885;51.374;6.170;2023-04-06T12:53:37;9.95;;;4.85;;
74371;SDS011;62885;51.374;6.170;2023-04-06T12:56:02;10.82;;;5.10;;
74371;SDS011;62885;51.374;6.170;2023-04-06T12:58:37;9.60;;;4.32;;
74371;SDS011;62885;51.374;6.170;2023-04-06T13:01:05;10.57;;;5.15;;
74371;SDS011;62885;51.374;6.170;2023-04-06T13:03:32;9.32;;;4.70;;
74371;SDS011;62885;51.374;6.170;2023-04-06T13:05:58;10.02;;;5.78;;
74371;SDS011;62885;51.374;6.170;2023-04-06T13:08:25;8.95;;;4.57;;
74371;SDS011;62885;51.374;6.170;2023-04-06T13:10:51;10.10;;;5.00;;
74371;SDS011;62885;51.374;6.170;2023-04-06T13:13:22;11.40;;;5.72;;
74371;SDS011;62885;51.374;6.170;2023-04-06T13:15:49;8.85;;;4.32;;
74371;SDS011;62885;51.374;6.170;2023-04-06T13:18:15;8.02;;;3.92;;
74371;SDS011;62885;51.374;6.170;2023-04-06T13:20:41;11.85;;;5.80;;
74371;SDS011;62885;51.374;6.170;2023-04-06T13:23:07;12.15;;;5.38;;
74371;SDS011;62885;51.374;6.170;2023-04-06T13:25:32;10.68;;;4.97;;
74371;SDS011;62885;51.374;6.170;2023-04-06T13:27:58;9.88;;;4.95;;
74371;SDS011;62885;51.374;6.170;2023-04-06T13:30:24;10.82;;;5.43;;
74371;SDS011;62885;51.374;6.170;2023-04-06T13:32:50;12.52;;;5.63;;
74371;SDS011;62885;51.374;6.170;2023-04-06T13:35:15;23.60;;;13.40;;
74371;SDS011;62885;51.374;6.170;2023-04-06T13:37:41;11.93;;;7.00;;
74371;SDS011;62885;51.374;6.170;2023-04-06T13:40:07;12.63;;;6.15;;
74371;SDS011;62885;51.374;6.170;2023-04-06T13:42:33;14.23;;;7.30;;
74371;SDS011;62885;51.374;6.170;2023-04-06T13:45:00;11.30;;;5.65;;
74371;SDS011;62885;51.374;6.170;2023-04-06T13:47:25;12.45;;;6.65;;
74371;SDS011;62885;51.374;6.170;2023-04-06T13:49:51;11.82;;;5.72;;
74371;SDS011;62885;51.374;6.170;2023-04-06T13:52:17;11.50;;;5.60;;
74371;SDS011;62885;51.374;6.170;2023-04-06T13:54:43;10.35;;;5.60;;
74371;SDS011;62885;51.374;6.170;2023-04-06T13:57:08;10.52;;;6.28;;
74371;SDS011;62885;51.374;6.170;2023-04-06T13:59:34;11.15;;;6.15;;
74371;SDS011;62885;51.374;6.170;2023-04-06T14:02:01;11.48;;;6.22;;
74371;SDS011;62885;51.374;6.170;2023-04-06T14:04:28;11.50;;;6.25;;
74371;SDS011;62885;51.374;6.170;2023-04-06T14:06:54;12.50;;;7.05;;
74371;SDS011;62885;51.374;6.170;2023-04-06T14:09:19;10.80;;;6.47;;
74371;SDS011;62885;51.374;6.170;2023-04-06T14:11:44;11.27;;;5.82;;
74371;SDS011;62885;51.374;6.170;2023-04-06T14:14:10;11.98;;;5.75;;
74371;SDS011;62885;51.374;6.170;2023-04-06T14:16:35;10.18;;;5.80;;
74371;SDS011;62885;51.374;6.170;2023-04-06T14:19:01;11.48;;;6.63;;
74371;SDS011;62885;51.374;6.170;2023-04-06T14:21:26;16.15;;;8.63;;
74371;SDS011;62885;51.374;6.170;2023-04-06T14:23:51;12.15;;;6.68;;
74371;SDS011;62885;51.374;6.170;2023-04-06T14:26:17;13.77;;;6.75;;
74371;SDS011;62885;51.374;6.170;2023-04-06T14:28:43;12.35;;;6.13;;
74371;SDS011;62885;51.374;6.170;2023-04-06T14:31:12;12.07;;;6.55;;
74371;SDS011;62885;51.374;6.170;2023-04-06T14:33:40;15.20;;;6.20;;
74371;SDS011;62885;51.374;6.170;2023-04-06T14:36:06;13.50;;;7.25;;
74371;SDS011;62885;51.374;6.170;2023-04-06T14:38:32;11.95;;;7.32;;